createdAt,value
2018-09-20T00:00:18.731Z,11.70
2018-09-20T00:01:18.741Z,12.70
2018-09-20T00:02:19.814Z,15.30
2018-09-20T00:03:19.804Z,16.90
2018-09-20T00:04:19.759Z,22.00
2018-09-20T00:05:21.695Z,14.30
2018-09-20T00:06:18.694Z,10.30
2018-09-20T00:07:18.699Z,24.80
2018-09-20T00:08:18.669Z,7.40
2018-09-20T00:09:19.644Z,9.70
2018-09-20T00:10:19.704Z,7.50
2018-09-20T00:11:19.720Z,4.90
2018-09-20T00:12:18.647Z,12.90
2018-09-20T00:13:18.711Z,15.70
2018-09-20T00:16:03.288Z,4.50
2018-09-20T00:17:02.303Z,16.50
2018-09-20T00:18:02.074Z,10.10
2018-09-20T00:19:02.116Z,8.50
2018-09-20T00:20:02.131Z,8.40
2018-09-20T00:21:02.056Z,10.70
2018-09-20T00:22:02.969Z,16.50
2018-09-20T00:23:01.982Z,11.70
2018-09-20T00:24:02.106Z,4.70
2018-09-20T00:25:01.948Z,12.60
2018-09-20T00:26:01.963Z,6.30
2018-09-20T00:27:02.003Z,7.30
2018-09-20T00:28:03.033Z,15.50
2018-09-20T00:29:01.955Z,6.50
2018-09-20T00:30:02.707Z,7.80
2018-09-20T00:31:01.880Z,12.90
2018-09-20T00:32:22.936Z,7.00
2018-09-20T00:33:01.867Z,6.80
2018-09-20T00:34:01.885Z,22.40
2018-09-20T00:35:02.507Z,40.10
2018-09-20T00:36:02.872Z,30.60
2018-09-20T00:37:02.631Z,6.10
2018-09-20T00:55:20.938Z,36.20
2018-09-20T00:55:39.905Z,8.00
2018-09-20T00:56:39.840Z,32.10
2018-09-20T00:57:39.851Z,26.70
2018-09-20T00:58:39.768Z,10.90
2018-09-20T01:11:31.357Z,4.20
2018-09-20T01:12:31.738Z,8.60
2018-09-20T01:13:31.729Z,17.00
2018-09-20T01:14:31.137Z,8.60
2018-09-20T01:15:31.089Z,9.80
2018-09-20T01:16:31.049Z,4.70
2018-09-20T01:23:59.941Z,3.80
2018-09-20T01:26:22.910Z,18.90
2018-09-20T01:27:23.394Z,17.10
2018-09-20T01:28:22.131Z,12.40
2018-09-20T01:29:22.097Z,19.20
2018-09-20T01:30:22.070Z,12.90
2018-09-20T01:31:33.110Z,6.90
2018-09-20T01:32:22.053Z,8.50
2018-09-20T01:37:26.620Z,14.10
2018-09-20T01:38:25.272Z,14.10
2018-09-20T01:39:24.093Z,8.40
2018-09-20T01:40:24.078Z,11.70
2018-09-20T01:41:24.053Z,11.40
2018-09-20T01:42:24.117Z,5.10
2018-09-20T01:43:24.072Z,8.80
2018-09-20T01:44:25.087Z,5.10
2018-09-20T01:45:24.095Z,9.10
2018-09-20T01:46:25.011Z,15.10
2018-09-20T01:47:23.993Z,11.90
2018-09-20T01:48:23.961Z,26.40
2018-09-20T01:49:23.973Z,9.10
2018-09-20T01:50:23.960Z,12.80
2018-09-20T01:51:23.919Z,5.50
2018-09-20T01:52:23.950Z,15.40
2018-09-20T01:53:23.964Z,12.10
2018-09-20T01:54:23.914Z,4.50
2018-09-20T01:55:23.921Z,4.10
2018-09-20T02:01:10.878Z,6.40
2018-09-20T02:02:10.016Z,11.60
2018-09-20T02:05:05.740Z,10.10
2018-09-20T02:05:58.861Z,10.40
2018-09-20T02:06:59.067Z,8.00
2018-09-20T02:07:57.888Z,7.10
2018-09-20T02:08:57.855Z,8.30
2018-09-20T02:09:57.821Z,5.10
2018-09-20T02:10:58.717Z,10.10
2018-09-20T02:11:57.767Z,5.80
2018-09-20T02:12:57.820Z,5.60
2018-09-20T02:13:57.730Z,17.00
2018-09-20T02:14:57.966Z,6.90
2018-09-20T02:16:00.498Z,5.60
2018-09-20T02:28:38.827Z,10.10
2018-09-20T02:29:36.227Z,5.40
2018-09-20T02:30:36.270Z,6.50
2018-09-20T02:31:36.153Z,15.70
2018-09-20T02:32:36.159Z,4.00
2018-09-20T02:33:36.113Z,16.60
2018-09-20T02:34:36.057Z,18.70
2018-09-20T02:35:36.126Z,7.30
2018-09-20T02:36:36.131Z,5.20
2018-09-20T02:37:36.059Z,6.80
2018-09-20T02:38:36.012Z,7.00
2018-09-20T02:39:36.030Z,5.00
2018-09-20T02:40:36.003Z,19.60
2018-09-20T02:41:36.017Z,14.40
2018-09-20T02:42:35.972Z,8.00
2018-09-20T02:43:36.003Z,6.90
2018-09-20T02:44:35.943Z,7.60
2018-09-20T02:45:35.958Z,5.50
2018-09-20T02:47:47.338Z,12.00
2018-09-20T02:48:47.370Z,9.80
2018-09-20T02:49:47.129Z,8.60
2018-09-20T02:50:47.164Z,7.30
2018-09-20T02:51:47.126Z,8.10
2018-09-20T02:52:47.041Z,6.90
2018-09-20T02:53:46.984Z,12.70
2018-09-20T02:54:46.950Z,9.10
2018-09-20T02:55:46.971Z,7.40
2018-09-20T02:56:46.977Z,5.40
2018-09-20T02:57:46.917Z,7.60
2018-09-20T02:58:46.976Z,7.20
2018-09-20T02:59:46.917Z,6.10
2018-09-20T03:00:46.878Z,11.30
2018-09-20T03:01:46.882Z,8.60
2018-09-20T03:02:46.908Z,4.70
2018-09-20T03:03:46.845Z,6.50
2018-09-20T03:04:46.875Z,6.60
2018-09-20T03:05:46.877Z,14.90
2018-09-20T03:06:46.817Z,11.30
2018-09-20T03:07:46.861Z,10.00
2018-09-20T03:17:44.267Z,3.80
2018-09-20T03:18:09.762Z,7.50
2018-09-20T03:19:32.036Z,8.40
2018-09-20T03:25:55.632Z,8.50
2018-09-20T03:26:55.690Z,8.70
2018-09-20T03:28:00.814Z,9.20
2018-09-20T03:28:45.393Z,6.20
2018-09-20T03:29:56.043Z,10.90
2018-09-20T03:35:46.299Z,18.20
2018-09-20T03:36:48.408Z,8.20
2018-09-20T03:43:50.765Z,6.10
2018-09-20T03:44:50.830Z,5.20
2018-09-20T03:46:04.164Z,7.10
2018-09-20T03:47:12.023Z,12.40
2018-09-20T03:47:50.957Z,11.70
2018-09-20T03:48:50.896Z,7.70
2018-09-20T03:50:05.367Z,11.20
2018-09-20T03:50:50.872Z,9.50
2018-09-20T03:51:50.871Z,6.60
2018-09-20T03:52:51.424Z,7.30
2018-09-20T03:53:51.222Z,4.80
2018-09-20T03:54:50.595Z,4.80
2018-09-20T03:55:50.579Z,7.10
2018-09-20T03:56:50.586Z,8.50
2018-09-20T03:57:50.527Z,6.70
2018-09-20T03:58:50.582Z,6.40
2018-09-20T03:59:50.503Z,6.30
2018-09-20T04:00:50.526Z,5.00
2018-09-20T04:01:50.507Z,7.40
2018-09-20T04:02:50.519Z,10.00
2018-09-20T04:03:51.108Z,6.10
2018-09-20T04:04:50.607Z,5.70
2018-09-20T04:05:50.475Z,37.70
2018-09-20T04:06:50.419Z,10.70
2018-09-20T04:07:50.407Z,22.50
2018-09-20T04:08:50.402Z,30.10
2018-09-20T04:09:50.496Z,18.80
2018-09-20T04:10:50.344Z,22.40
2018-09-20T04:11:50.341Z,9.10
2018-09-20T04:12:50.344Z,6.80
2018-09-20T04:13:50.334Z,9.70
2018-09-20T04:14:50.308Z,27.50
2018-09-20T04:15:50.320Z,35.60
2018-09-20T04:16:50.261Z,11.40
2018-09-20T04:17:50.272Z,4.80
2018-09-20T04:18:50.319Z,6.50
2018-09-20T04:19:50.244Z,7.90
2018-09-20T04:20:51.262Z,7.80
2018-09-20T04:21:50.249Z,7.10
2018-09-20T04:22:50.201Z,4.90
2018-09-20T04:23:50.209Z,10.30
2018-09-20T04:24:50.176Z,32.60
2018-09-20T04:25:50.212Z,22.20
2018-09-20T04:26:50.171Z,19.30
2018-09-20T04:27:50.164Z,23.50
2018-09-20T04:28:50.142Z,10.60
2018-09-20T04:29:50.154Z,19.20
2018-09-20T04:30:50.266Z,13.30
2018-09-20T04:31:53.671Z,10.00
2018-09-20T04:33:12.026Z,19.30
2018-09-20T04:33:50.265Z,21.80
2018-09-20T04:34:50.278Z,15.20
2018-09-20T04:35:50.252Z,15.70
2018-09-20T04:36:50.115Z,12.90
2018-09-20T04:37:51.111Z,5.80
2018-09-20T04:38:50.032Z,11.50
2018-09-20T04:39:50.001Z,12.30
2018-09-20T04:40:50.079Z,10.10
2018-09-20T04:41:50.025Z,13.80
2018-09-20T04:42:49.971Z,16.40
2018-09-20T04:43:50.026Z,10.20
2018-09-20T04:44:49.945Z,16.00
2018-09-20T04:45:49.949Z,21.10
2018-09-20T04:46:54.645Z,11.30
2018-09-20T04:47:49.935Z,15.30
2018-09-20T04:48:50.014Z,8.70
2018-09-20T04:49:49.947Z,18.80
2018-09-20T04:50:49.935Z,33.70
2018-09-20T04:51:49.907Z,12.20
2018-09-20T04:52:49.843Z,7.20
2018-09-20T04:53:49.930Z,18.10
2018-09-20T04:54:49.867Z,16.80
2018-09-20T04:55:50.097Z,7.70
2018-09-20T05:00:03.724Z,14.80
2018-09-20T05:01:16.822Z,32.50
2018-09-20T05:02:03.267Z,26.00
2018-09-20T05:03:04.871Z,18.80
2018-09-20T05:04:04.147Z,37.90
2018-09-20T05:05:03.479Z,39.20
2018-09-20T05:06:04.218Z,27.60
2018-09-20T05:07:03.117Z,14.50
2018-09-20T05:08:03.102Z,49.90
2018-09-20T05:09:03.081Z,13.60
2018-09-20T05:10:03.799Z,10.60
2018-09-20T05:11:03.123Z,9.50
2018-09-20T05:12:03.795Z,8.10
2018-09-20T05:13:03.069Z,7.50
2018-09-20T05:14:03.062Z,14.90
2018-09-20T05:15:03.007Z,14.90
2018-09-20T05:16:03.037Z,24.70
2018-09-20T05:17:03.010Z,27.40
2018-09-20T05:18:02.985Z,24.50
2018-09-20T05:19:02.968Z,41.80
2018-09-20T05:20:02.987Z,49.60
2018-09-20T05:21:02.948Z,31.30
2018-09-20T05:22:03.016Z,29.60
2018-09-20T05:23:02.955Z,40.20
2018-09-20T05:24:02.915Z,14.20
2018-09-20T05:25:02.904Z,43.80
2018-09-20T05:26:02.923Z,28.80
2018-09-20T05:27:02.889Z,21.50
2018-09-20T05:28:02.929Z,33.00
2018-09-20T05:29:02.865Z,14.40
2018-09-20T05:30:02.861Z,11.30
2018-09-20T05:31:03.808Z,7.20
2018-09-20T05:32:02.840Z,21.70
2018-09-20T05:33:02.828Z,11.60
2018-09-20T05:34:02.829Z,6.40
2018-09-20T05:35:03.288Z,15.20
2018-09-20T05:36:02.773Z,12.10
2018-09-20T05:37:02.775Z,76.40
2018-09-20T05:38:02.771Z,75.90
2018-09-20T05:39:02.748Z,75.10
2018-09-20T05:40:03.729Z,124.10
2018-09-20T05:41:02.723Z,53.30
2018-09-20T05:42:02.725Z,48.40
2018-09-20T05:43:02.731Z,27.90
2018-09-20T05:44:02.691Z,28.00
2018-09-20T05:45:02.676Z,33.10
2018-09-20T05:46:02.678Z,47.80
2018-09-20T05:47:02.647Z,44.30
2018-09-20T05:48:02.653Z,74.50
2018-09-20T05:49:02.641Z,32.40
2018-09-20T05:50:02.672Z,38.40
2018-09-20T05:51:02.604Z,41.10
2018-09-20T05:52:02.592Z,60.60
2018-09-20T05:53:02.597Z,54.40
2018-09-20T05:54:02.819Z,54.10
2018-09-20T05:55:02.560Z,60.80
2018-09-20T05:56:02.551Z,46.00
2018-09-20T05:57:02.539Z,38.00
2018-09-20T05:58:02.553Z,23.20
2018-09-20T05:59:02.555Z,21.30
2018-09-20T06:00:02.512Z,62.90
2018-09-20T06:01:02.488Z,90.90
2018-09-20T06:02:02.494Z,86.50
2018-09-20T06:03:02.477Z,29.30
2018-09-20T06:04:02.462Z,15.20
2018-09-20T06:05:02.472Z,15.00
2018-09-20T06:06:02.457Z,25.70
2018-09-20T06:07:03.437Z,25.80
2018-09-20T06:08:04.294Z,22.50
2018-09-20T06:09:02.432Z,16.30
2018-09-20T06:10:03.351Z,17.40
2018-09-20T06:11:02.385Z,11.00
2018-09-20T06:12:02.367Z,9.50
2018-09-20T06:13:02.357Z,8.80
2018-09-20T06:14:02.372Z,6.60
2018-09-20T06:15:02.374Z,11.40
2018-09-20T06:16:02.328Z,6.40
2018-09-20T06:17:02.312Z,7.30
2018-09-20T06:18:02.317Z,10.40
2018-09-20T06:19:02.282Z,8.20
2018-09-20T06:20:02.277Z,9.50
2018-09-20T06:21:02.332Z,12.90
2018-09-20T06:22:02.263Z,12.10
2018-09-20T06:23:02.240Z,11.20
2018-09-20T06:24:02.240Z,8.80
2018-09-20T06:25:02.231Z,8.30
2018-09-20T06:26:02.206Z,10.60
2018-09-20T06:27:02.207Z,8.70
2018-09-20T06:28:02.187Z,12.30
2018-09-20T06:29:02.210Z,10.80
2018-09-20T06:30:02.190Z,11.60
2018-09-20T06:31:02.154Z,7.60
2018-09-20T06:32:02.221Z,9.70
2018-09-20T06:33:02.138Z,7.60
2018-09-20T06:34:02.118Z,8.20
2018-09-20T06:35:02.171Z,7.90
2018-09-20T06:36:02.114Z,8.10
2018-09-20T06:37:02.083Z,6.50
2018-09-20T06:38:02.125Z,13.00
2018-09-20T06:39:02.077Z,9.50
2018-09-20T06:40:02.051Z,7.90
2018-09-20T06:41:02.094Z,6.70
2018-09-20T06:42:02.025Z,6.80
2018-09-20T06:43:02.058Z,5.10
2018-09-20T06:44:02.013Z,5.80
2018-09-20T06:45:02.029Z,5.30
2018-09-20T06:46:02.014Z,9.60
2018-09-20T06:47:01.977Z,14.60
2018-09-20T06:48:11.543Z,9.70
2018-09-20T06:49:02.074Z,5.90
2018-09-20T06:50:02.066Z,8.80
2018-09-20T06:51:02.036Z,13.60
2018-09-20T06:52:02.049Z,5.50
2018-09-20T06:53:01.916Z,4.70
2018-09-20T06:54:01.909Z,8.30
2018-09-20T06:55:01.900Z,6.20
2018-09-20T06:56:01.865Z,7.20
2018-09-20T06:57:01.860Z,7.50
2018-09-20T06:58:01.885Z,5.60
2018-09-20T06:59:01.864Z,5.40
2018-09-20T07:00:01.825Z,8.10
2018-09-20T07:01:01.815Z,10.20
2018-09-20T07:02:01.808Z,13.10
2018-09-20T07:03:01.871Z,4.50
2018-09-20T07:04:01.836Z,5.20
2018-09-20T07:05:01.771Z,6.40
2018-09-20T07:06:01.763Z,6.80
2018-09-20T07:07:01.762Z,4.60
2018-09-20T07:08:01.731Z,5.90
2018-09-20T07:09:01.726Z,27.50
2018-09-20T07:10:01.730Z,6.00
2018-09-20T07:11:01.698Z,8.10
2018-09-20T07:12:01.695Z,6.60
2018-09-20T07:13:01.681Z,5.90
2018-09-20T07:14:01.670Z,8.10
2018-09-20T07:15:01.867Z,10.70
2018-09-20T07:16:01.668Z,10.00
2018-09-20T07:17:01.665Z,7.80
2018-09-20T07:18:01.631Z,9.90
2018-09-20T07:19:01.645Z,11.80
2018-09-20T07:20:01.601Z,5.90
2018-09-20T07:21:01.598Z,13.20
2018-09-20T07:22:01.581Z,12.70
2018-09-20T07:23:01.572Z,6.30
2018-09-20T07:24:01.610Z,8.40
2018-09-20T07:25:01.609Z,11.50
2018-09-20T07:26:01.561Z,9.30
2018-09-20T07:27:01.527Z,8.20
2018-09-20T07:28:01.527Z,6.70
2018-09-20T07:29:01.511Z,4.90
2018-09-20T07:30:01.499Z,8.00
2018-09-20T07:31:01.487Z,9.30
2018-09-20T07:32:02.781Z,17.20
2018-09-20T07:33:01.460Z,7.50
2018-09-20T07:34:01.447Z,8.10
2018-09-20T07:35:01.472Z,11.70
2018-09-20T07:36:02.418Z,8.10
2018-09-20T07:37:01.443Z,4.80
2018-09-20T07:38:01.443Z,5.20
2018-09-20T07:39:01.396Z,7.60
2018-09-20T07:40:01.379Z,8.40
2018-09-20T07:41:01.414Z,6.20
2018-09-20T07:42:01.351Z,5.50
2018-09-20T07:43:02.373Z,7.60
2018-09-20T07:44:01.351Z,4.40
2018-09-20T07:45:01.329Z,10.00
2018-09-20T07:46:01.320Z,7.00
2018-09-20T07:47:01.309Z,5.90
2018-09-20T07:48:01.863Z,15.60
2018-09-20T07:49:01.301Z,4.70
2018-09-20T07:50:01.273Z,5.40
2018-09-20T07:51:01.282Z,6.00
2018-09-20T07:52:01.272Z,6.40
2018-09-20T07:53:01.290Z,4.80
2018-09-20T07:54:01.857Z,6.20
2018-09-20T07:55:01.215Z,4.10
2018-09-20T07:56:01.805Z,4.20
2018-09-20T07:57:01.203Z,4.90
2018-09-20T07:58:01.179Z,7.40
2018-09-20T07:59:01.209Z,6.00
2018-09-20T08:00:02.204Z,3.80
2018-09-20T08:01:01.157Z,4.80
2018-09-20T08:02:01.279Z,4.10
2018-09-20T08:03:01.122Z,4.60
2018-09-20T08:04:01.805Z,5.60
2018-09-20T08:05:01.131Z,9.60
2018-09-20T08:06:01.110Z,7.30
2018-09-20T08:07:01.090Z,9.70
2018-09-20T08:08:01.072Z,6.50
2018-09-20T08:09:01.060Z,4.30
2018-09-20T08:10:01.108Z,5.00
2018-09-20T08:11:01.075Z,5.60
2018-09-20T08:12:01.035Z,3.80
2018-09-20T08:13:02.063Z,5.20
2018-09-20T08:14:01.007Z,5.50
2018-09-20T08:15:02.050Z,4.50
2018-09-20T08:16:01.853Z,5.00
2018-09-20T08:17:00.986Z,6.90
2018-09-20T08:18:00.974Z,4.70
2018-09-20T08:19:00.962Z,5.30
2018-09-20T08:20:00.946Z,4.20
2018-09-20T08:21:00.981Z,4.90
2018-09-20T08:22:00.980Z,5.10
2018-09-20T08:23:00.906Z,12.90
2018-09-20T08:24:00.896Z,6.30
2018-09-20T08:25:00.895Z,9.10
2018-09-20T08:26:01.811Z,13.00
2018-09-20T08:27:00.914Z,9.30
2018-09-20T08:28:00.903Z,15.00
2018-09-20T08:29:01.367Z,13.90
2018-09-20T08:30:00.911Z,10.70
2018-09-20T08:31:01.376Z,4.90
2018-09-20T08:32:00.814Z,6.30
2018-09-20T08:33:00.821Z,5.30
2018-09-20T08:34:02.366Z,6.50
2018-09-20T08:35:00.799Z,6.80
2018-09-20T08:36:00.766Z,8.40
2018-09-20T08:37:00.775Z,4.90
2018-09-20T08:38:00.748Z,7.10
2018-09-20T08:39:00.776Z,3.70
2018-09-20T08:40:00.718Z,4.50
2018-09-20T08:41:00.734Z,4.10
2018-09-20T08:42:00.724Z,5.00
2018-09-20T08:43:00.753Z,5.20
2018-09-20T08:44:00.692Z,5.60
2018-09-20T08:45:00.752Z,5.50
2018-09-20T08:46:01.354Z,4.50
2018-09-20T08:47:00.645Z,4.00
2018-09-20T08:48:00.635Z,5.70
2018-09-20T08:49:00.620Z,9.90
2018-09-20T08:50:00.631Z,4.80
2018-09-20T08:51:00.683Z,4.30
2018-09-20T08:52:00.589Z,4.40
2018-09-20T08:53:00.603Z,4.90
2018-09-20T08:54:00.576Z,4.40
2018-09-20T08:55:00.555Z,8.40
2018-09-20T08:56:01.363Z,4.00
2018-09-20T08:57:00.586Z,5.10
2018-09-20T08:58:00.550Z,4.50
2018-09-20T08:59:00.538Z,5.60
2018-09-20T09:00:00.505Z,7.60
2018-09-20T09:01:01.900Z,5.70
2018-09-20T09:02:00.487Z,5.40
2018-09-20T09:03:00.465Z,6.90
2018-09-20T09:04:00.492Z,6.60
2018-09-20T09:05:00.467Z,4.10
2018-09-20T09:06:00.434Z,4.90
2018-09-20T09:07:00.475Z,4.00
2018-09-20T09:08:00.436Z,6.30
2018-09-20T09:09:00.454Z,6.60
2018-09-20T09:10:01.382Z,4.40
2018-09-20T09:11:00.396Z,5.30
2018-09-20T09:12:00.404Z,5.60
2018-09-20T09:13:00.407Z,4.80
2018-09-20T09:14:00.351Z,3.40
2018-09-20T09:15:00.375Z,4.40
2018-09-20T09:16:00.343Z,6.60
2018-09-20T09:17:10.956Z,13.20
2018-09-20T09:18:00.322Z,5.30
2018-09-20T09:19:00.451Z,4.00
2018-09-20T09:20:00.309Z,13.10
2018-09-20T09:21:00.280Z,8.10
2018-09-20T09:22:00.302Z,5.30
2018-09-20T09:23:00.284Z,3.90
2018-09-20T09:24:01.301Z,4.00
2018-09-20T09:25:00.260Z,7.80
2018-09-20T09:26:00.219Z,8.10
2018-09-20T09:27:00.215Z,3.70
2018-09-20T09:28:00.265Z,4.40
2018-09-20T09:29:00.190Z,6.70
2018-09-20T09:30:00.180Z,4.90
2018-09-20T09:31:00.223Z,5.00
2018-09-20T09:32:00.159Z,4.10
2018-09-20T09:33:00.200Z,6.30
2018-09-20T09:34:00.157Z,5.00
2018-09-20T09:35:00.132Z,5.70
2018-09-20T09:36:00.254Z,9.60
2018-09-20T09:37:00.113Z,7.50
2018-09-20T09:38:00.134Z,12.00
2018-09-20T09:39:00.115Z,5.80
2018-09-20T09:40:00.080Z,6.30
2018-09-20T09:41:00.115Z,5.50
2018-09-20T09:42:00.056Z,13.50
2018-09-20T09:43:00.057Z,7.90
2018-09-20T09:44:00.033Z,6.60
2018-09-20T09:45:00.050Z,9.10
2018-09-20T09:46:00.002Z,14.30
2018-09-20T09:47:00.000Z,10.60
2018-09-20T09:48:00.009Z,5.80
2018-09-20T09:48:59.995Z,11.40
2018-09-20T09:49:59.950Z,8.90
2018-09-20T09:50:59.949Z,4.00
2018-09-20T09:51:59.939Z,5.30
2018-09-20T09:52:59.938Z,6.10
2018-09-20T09:54:00.884Z,4.30
2018-09-20T09:54:59.932Z,5.60
2018-09-20T09:55:59.892Z,5.10
2018-09-20T09:57:00.832Z,4.20
2018-09-20T09:57:59.895Z,7.50
2018-09-20T09:58:59.867Z,6.10
2018-09-20T09:59:59.874Z,5.30
2018-09-20T10:01:01.368Z,5.20
2018-09-20T10:01:59.868Z,7.10
2018-09-20T10:03:01.379Z,5.90
2018-09-20T10:03:59.808Z,4.00
2018-09-20T10:04:59.808Z,11.60
2018-09-20T10:06:00.380Z,9.50
2018-09-20T10:06:59.799Z,6.10
2018-09-20T10:07:59.775Z,9.70
2018-09-20T10:08:59.832Z,6.10
2018-09-20T10:09:59.741Z,5.90
2018-09-20T10:10:59.739Z,8.10
2018-09-20T10:11:59.724Z,6.70
2018-09-20T10:12:59.787Z,4.10
2018-09-20T10:14:00.736Z,5.50
2018-09-20T10:14:59.694Z,7.10
2018-09-20T10:15:59.689Z,4.80
2018-09-20T10:16:59.739Z,6.50
2018-09-20T10:17:59.717Z,5.10
2018-09-20T10:18:59.648Z,6.10
2018-09-20T10:19:59.690Z,6.80
2018-09-20T10:20:59.620Z,4.50
2018-09-20T10:21:59.645Z,7.10
2018-09-20T10:22:59.624Z,4.40
2018-09-20T10:23:59.786Z,5.20
2018-09-20T10:24:59.583Z,5.10
2018-09-20T10:25:59.567Z,4.10
2018-09-20T10:26:59.560Z,5.50
2018-09-20T10:27:59.560Z,5.20
2018-09-20T10:29:00.578Z,6.00
2018-09-20T10:29:59.585Z,4.20
2018-09-20T10:30:59.527Z,5.50
2018-09-20T10:31:59.509Z,5.50
2018-09-20T10:32:59.495Z,8.90
2018-09-20T10:33:59.552Z,5.30
2018-09-20T10:34:59.491Z,11.40
2018-09-20T10:35:59.473Z,6.90
2018-09-20T10:36:59.463Z,4.20
2018-09-20T10:37:59.459Z,5.20
2018-09-20T10:38:59.441Z,8.70
2018-09-20T10:39:59.521Z,5.90
2018-09-20T10:41:00.403Z,5.80
2018-09-20T10:41:59.414Z,7.80
2018-09-20T10:42:59.395Z,7.70
2018-09-20T10:43:59.430Z,8.20
2018-09-20T10:44:59.380Z,18.70
2018-09-20T10:45:59.405Z,7.90
2018-09-20T10:46:59.370Z,5.70
2018-09-20T10:47:59.351Z,5.80
2018-09-20T10:48:59.345Z,5.90
2018-09-20T10:49:59.314Z,4.80
2018-09-20T10:50:59.338Z,5.70
2018-09-20T10:51:59.296Z,6.60
2018-09-20T10:52:59.283Z,7.10
2018-09-20T10:53:59.280Z,8.00
2018-09-20T10:54:59.265Z,6.70
2018-09-20T10:55:59.278Z,4.10
2018-09-20T10:56:59.252Z,4.70
2018-09-20T10:57:59.228Z,8.30
2018-09-20T10:58:59.272Z,5.60
2018-09-20T10:59:59.197Z,6.40
2018-09-20T11:00:59.221Z,5.90
2018-09-20T11:01:59.198Z,4.30
2018-09-20T11:02:59.299Z,5.60
2018-09-20T11:03:59.174Z,7.80
2018-09-20T11:04:59.149Z,5.80
2018-09-20T11:05:59.224Z,8.00
2018-09-20T11:06:59.125Z,5.80
2018-09-20T11:07:59.124Z,5.80
2018-09-20T11:08:59.108Z,7.90
2018-09-20T11:09:59.145Z,5.20
2018-09-20T11:10:59.113Z,6.80
2018-09-20T11:11:59.107Z,5.50
2018-09-20T11:12:59.060Z,5.70
2018-09-20T11:13:59.059Z,5.90
2018-09-20T11:14:59.058Z,5.00
2018-09-20T11:15:59.023Z,6.90
2018-09-20T11:16:59.049Z,17.60
2018-09-20T11:17:59.018Z,15.70
2018-09-20T11:18:58.994Z,12.80
2018-09-20T11:19:58.984Z,14.00
2018-09-20T11:20:59.049Z,8.20
2018-09-20T11:21:58.983Z,10.10
2018-09-20T11:22:58.980Z,6.40
2018-09-20T11:23:58.939Z,8.40
2018-09-20T11:24:58.972Z,6.60
2018-09-20T11:25:58.996Z,7.50
2018-09-20T11:26:58.906Z,9.70
2018-09-20T11:27:58.916Z,5.20
2018-09-20T11:28:58.892Z,5.00
2018-09-20T11:29:58.901Z,5.60
2018-09-20T11:30:58.863Z,4.80
2018-09-20T11:31:58.872Z,6.10
2018-09-20T11:34:39.524Z,3.90
2018-09-20T11:35:10.421Z,4.50
2018-09-20T11:36:10.126Z,5.80
2018-09-20T11:37:10.061Z,7.40
2018-09-20T11:38:10.814Z,10.80
2018-09-20T11:39:10.015Z,5.80
2018-09-20T11:40:10.012Z,10.00
2018-09-20T11:41:09.997Z,11.40
2018-09-20T11:42:10.007Z,6.40
2018-09-20T11:43:10.064Z,5.80
2018-09-20T11:44:09.961Z,5.90
2018-09-20T11:45:09.982Z,6.50
2018-09-20T11:46:09.939Z,7.20
2018-09-20T11:47:09.918Z,4.80
2018-09-20T11:48:10.996Z,7.30
2018-09-20T11:49:10.936Z,11.90
2018-09-20T11:50:09.936Z,8.10
2018-09-20T11:51:09.913Z,9.30
2018-09-20T11:52:09.864Z,9.50
2018-09-20T11:53:09.896Z,7.50
2018-09-20T11:54:09.894Z,5.30
2018-09-20T11:55:09.900Z,7.80
2018-09-20T11:56:09.831Z,5.60
2018-09-20T11:57:09.823Z,7.30
2018-09-20T11:58:09.806Z,7.60
2018-09-20T11:59:09.829Z,6.60
2018-09-20T12:00:09.825Z,5.10
2018-09-20T12:01:09.820Z,12.90
2018-09-20T12:02:09.758Z,7.00
2018-09-20T12:03:09.743Z,6.00
2018-09-20T12:04:09.803Z,3.80
2018-09-20T12:05:09.779Z,6.10
2018-09-20T12:06:09.711Z,5.10
2018-09-20T12:07:09.713Z,5.20
2018-09-20T12:08:09.691Z,5.60
2018-09-20T12:09:09.713Z,5.50
2018-09-20T12:10:09.675Z,5.10
2018-09-20T12:11:09.726Z,5.30
2018-09-20T12:12:10.281Z,5.60
2018-09-20T12:13:09.668Z,6.10
2018-09-20T12:14:09.626Z,10.00
2018-09-20T12:15:09.809Z,6.20
2018-09-20T12:16:09.604Z,4.40
2018-09-20T12:17:09.664Z,6.10
2018-09-20T12:18:09.591Z,11.10
2018-09-20T12:19:09.598Z,6.50
2018-09-20T12:20:09.588Z,5.10
2018-09-20T12:21:09.549Z,6.00
2018-09-20T12:22:09.543Z,9.30
2018-09-20T12:23:09.533Z,7.90
2018-09-20T12:24:09.525Z,8.70
2018-09-20T12:25:09.509Z,7.10
2018-09-20T12:26:09.531Z,6.30
2018-09-20T12:27:09.487Z,11.10
2018-09-20T12:28:09.478Z,15.20
2018-09-20T12:29:09.564Z,14.90
2018-09-20T12:30:09.451Z,8.40
2018-09-20T12:31:09.456Z,5.80
2018-09-20T12:32:10.460Z,19.40
2018-09-20T12:33:09.486Z,7.70
2018-09-20T12:34:09.413Z,4.30
2018-09-20T12:35:09.412Z,4.60
2018-09-20T12:36:09.382Z,3.90
2018-09-20T12:37:09.425Z,3.90
2018-09-20T12:38:09.447Z,5.60
2018-09-20T12:39:09.358Z,3.90
2018-09-20T12:40:09.342Z,3.70
2018-09-20T12:41:09.334Z,3.70
2018-09-20T12:42:09.322Z,6.80
2018-09-20T12:43:09.399Z,6.10
2018-09-20T12:44:09.312Z,6.20
2018-09-20T12:45:09.315Z,6.10
2018-09-20T12:46:09.278Z,3.90
2018-09-20T12:47:09.315Z,6.60
2018-09-20T12:48:09.313Z,4.50
2018-09-20T12:49:10.250Z,4.80
2018-09-20T12:50:09.236Z,4.90
2018-09-20T12:51:09.255Z,5.60
2018-09-20T12:52:09.208Z,4.20
2018-09-20T12:53:09.863Z,4.70
2018-09-20T12:54:09.247Z,4.10
2018-09-20T12:55:09.193Z,4.00
2018-09-20T12:56:09.168Z,5.80
2018-09-20T12:57:09.191Z,19.80
2018-09-20T12:58:09.162Z,4.80
2018-09-20T12:59:09.183Z,4.50
2018-09-20T13:00:09.128Z,3.50
2018-09-20T13:01:09.130Z,5.30
2018-09-20T13:02:09.178Z,4.50
2018-09-20T13:03:09.102Z,4.70
2018-09-20T13:04:09.082Z,4.80
2018-09-20T13:05:09.071Z,7.60
2018-09-20T13:06:09.065Z,3.80
2018-09-20T13:07:09.085Z,4.50
2018-09-20T13:08:09.072Z,3.90
2018-09-20T13:09:09.049Z,6.90
2018-09-20T13:10:09.013Z,5.40
2018-09-20T13:11:09.005Z,5.30
2018-09-20T13:12:09.023Z,6.60
2018-09-20T13:13:09.075Z,5.70
2018-09-20T13:14:08.976Z,4.50
2018-09-20T13:15:08.990Z,4.30
2018-09-20T13:16:08.945Z,5.70
2018-09-20T13:17:10.036Z,5.30
2018-09-20T13:18:08.923Z,9.70
2018-09-20T13:19:08.924Z,32.70
2018-09-20T13:20:09.089Z,5.10
2018-09-20T13:21:09.883Z,4.90
2018-09-20T13:22:08.911Z,13.40
2018-09-20T13:23:08.880Z,4.50
2018-09-20T13:24:08.850Z,9.70
2018-09-20T13:25:08.856Z,5.70
2018-09-20T13:26:08.847Z,5.50
2018-09-20T13:27:09.856Z,4.40
2018-09-20T13:28:08.839Z,5.40
2018-09-20T13:29:08.798Z,5.30
2018-09-20T13:30:08.814Z,6.70
2018-09-20T13:31:08.795Z,7.20
2018-09-20T13:32:40.347Z,6.20
2018-09-20T13:33:08.775Z,3.90
2018-09-20T13:34:08.770Z,4.00
2018-09-20T13:35:08.739Z,7.00
2018-09-20T13:36:08.726Z,6.60
2018-09-20T13:37:08.801Z,6.80
2018-09-20T13:38:08.707Z,4.50
2018-09-20T13:39:08.722Z,4.40
2018-09-20T13:40:08.701Z,4.50
2018-09-20T13:41:08.716Z,11.90
2018-09-20T13:42:08.659Z,10.70
2018-09-20T13:43:08.657Z,6.50
2018-09-20T13:44:08.683Z,3.90
2018-09-20T13:45:08.649Z,4.50
2018-09-20T13:46:08.617Z,10.50
2018-09-20T13:47:29.723Z,6.30
2018-09-20T13:48:09.315Z,7.10
2018-09-20T13:49:08.617Z,7.60
2018-09-20T13:50:08.624Z,5.70
2018-09-20T13:51:08.554Z,6.00
2018-09-20T13:52:08.582Z,4.00
2018-09-20T13:53:09.556Z,7.10
2018-09-20T13:54:08.562Z,5.10
2018-09-20T13:55:08.594Z,6.60
2018-09-20T13:56:08.526Z,4.70
2018-09-20T13:57:10.360Z,5.10
2018-09-20T13:58:08.483Z,7.30
2018-09-20T13:59:08.472Z,7.30
2018-09-20T14:00:08.481Z,8.50
2018-09-20T14:01:08.450Z,16.30
2018-09-20T14:02:08.481Z,8.00
2018-09-20T14:03:08.435Z,10.00
2018-09-20T14:04:08.412Z,11.30
2018-09-20T14:05:08.429Z,9.60
2018-09-20T14:06:08.430Z,9.20
2018-09-20T14:07:08.832Z,7.00
2018-09-20T14:08:08.440Z,8.40
2018-09-20T14:09:08.361Z,9.60
2018-09-20T14:10:08.371Z,8.70
2018-09-20T14:11:08.459Z,12.10
2018-09-20T14:12:08.348Z,15.80
2018-09-20T14:13:08.432Z,8.00
2018-09-20T14:14:09.318Z,8.20
2018-09-20T14:15:08.303Z,7.20
2018-09-20T14:16:08.304Z,14.30
2018-09-20T14:17:08.305Z,4.80
2018-09-20T14:18:08.283Z,9.60
2018-09-20T14:19:08.320Z,3.60
2018-09-20T14:20:08.245Z,5.50
2018-09-20T14:21:08.230Z,9.50
2018-09-20T14:22:08.828Z,5.30
2018-09-20T14:23:08.239Z,6.90
2018-09-20T14:24:08.210Z,5.60
2018-09-20T14:25:08.191Z,6.30
2018-09-20T14:26:08.183Z,3.60
2018-09-20T14:27:08.254Z,4.60
2018-09-20T14:28:08.169Z,4.10
2018-09-20T14:29:08.146Z,9.00
2018-09-20T14:30:08.135Z,6.80
2018-09-20T14:31:08.121Z,4.30
2018-09-20T14:32:08.165Z,4.50
2018-09-20T14:33:09.101Z,5.60
2018-09-20T14:34:08.134Z,5.40
2018-09-20T14:35:08.081Z,3.70
2018-09-20T14:36:08.091Z,4.00
2018-09-20T14:37:09.365Z,4.00
2018-09-20T14:38:08.053Z,5.50
2018-09-20T14:39:08.032Z,4.70
2018-09-20T14:40:08.831Z,4.40
2018-09-20T14:41:08.009Z,3.60